Decoded Metar for LFOT (TOURS in FRANCE) (IATA:TUF) | Meteo·Mobile Aviation Weather
aviador You're here:

LFOT Decoded Metar

TOURS in FRANCE
Report Time2019-07-19 18:30:00
UTC Time2019-07-19 19:04:07
Flight Rules vfr VFR
Wind250° at 05 kt
W.Decomp.*RWY 20: 3.2 kt HW 3.8 kt RCW
Visibility9999 m
Phenomena:N/A
Clouds:N/A
Expected CloudBase > 5,600 ft AGL from Temp-Dew spread
CeilingNone
Temp28°C (ISA +14)
Dew Point14°C (42% RH)
Heat Index27.8°C
AAT27.4°C
QNH1012 hPa
Density Alt2,178 ft
Elevation354 ft
Report Wrong Elevation
Raw Report
LFOT 191830Z AUTO 25005KT 190V300 CAVOK 28/14 Q1012 NOSIG=

Extra information for LFOT:More info

Metar Taf Metar & Taf Last 4 Metars F.Rules Stats Wind Profile Meteogram Temp Stats Airport Information Weather charts Add Link Nearby VenuesMetar ALERT Operation Metar Decoded Social comments